createdAt,value
2018-09-04T00:02:03.962Z,98434.00
2018-09-04T00:04:32.403Z,98435.00
2018-09-04T00:07:00.825Z,98441.00
2018-09-04T00:09:29.232Z,98435.00
2018-09-04T00:11:57.648Z,98431.00
2018-09-04T00:14:26.115Z,98441.00
2018-09-04T00:16:54.519Z,98444.00
2018-09-04T00:19:22.931Z,98452.00
2018-09-04T00:21:51.341Z,98457.00
2018-09-04T00:24:19.750Z,98445.00
2018-09-04T00:26:48.171Z,98456.00
2018-09-04T00:29:16.591Z,98442.00
2018-09-04T00:31:45.153Z,98454.00
2018-09-04T00:34:13.578Z,98453.00
2018-09-04T00:36:41.977Z,98447.00
2018-09-04T00:39:10.404Z,98440.00
2018-09-04T00:41:38.806Z,98449.00
2018-09-04T00:44:07.226Z,98448.00
2018-09-04T00:46:35.635Z,98450.00
2018-09-04T00:49:04.038Z,98444.00
2018-09-04T00:51:32.746Z,98459.00
2018-09-04T00:54:01.145Z,98458.00
2018-09-04T00:56:29.552Z,98464.00
2018-09-04T00:58:57.982Z,98465.00
2018-09-04T01:01:31.422Z,98456.00
2018-09-04T01:03:59.845Z,98462.00
2018-09-04T01:06:28.328Z,98453.00
2018-09-04T01:08:56.739Z,98448.00
2018-09-04T01:11:25.135Z,98454.00
2018-09-04T01:13:53.545Z,98453.00
2018-09-04T01:16:21.998Z,98454.00
2018-09-04T01:18:50.457Z,98456.00
2018-09-04T01:21:18.887Z,98448.00
2018-09-04T01:23:47.284Z,98462.00
2018-09-04T01:26:15.693Z,98453.00
2018-09-04T01:28:44.102Z,98448.00
2018-09-04T01:31:12.527Z,98449.00
2018-09-04T01:33:40.923Z,98442.00
2018-09-04T01:36:09.442Z,98441.00
2018-09-04T01:38:37.876Z,98441.00
2018-09-04T01:41:06.293Z,98445.00
2018-09-04T01:43:34.704Z,98445.00
2018-09-04T01:46:03.093Z,98444.00
2018-09-04T01:48:31.485Z,98451.00
2018-09-04T01:50:59.894Z,98455.00
2018-09-04T01:53:28.355Z,98441.00
2018-09-04T01:55:56.782Z,98441.00
2018-09-04T01:58:25.187Z,98450.00
2018-09-04T02:00:54.125Z,98441.00
2018-09-04T02:03:22.538Z,98447.00
2018-09-04T02:05:50.963Z,98440.00
2018-09-04T02:08:19.359Z,98449.00
2018-09-04T02:10:47.789Z,98450.00
2018-09-04T02:13:16.185Z,98447.00
2018-09-04T02:15:44.598Z,98451.00
2018-09-04T02:18:13.012Z,98442.00
2018-09-04T02:20:41.414Z,98448.00
2018-09-04T02:23:09.809Z,98450.00
2018-09-04T02:25:38.214Z,98445.00
2018-09-04T02:28:06.606Z,98443.00
2018-09-04T02:30:34.997Z,98446.00
2018-09-04T02:33:03.483Z,98447.00
2018-09-04T02:35:31.833Z,98445.00
2018-09-04T02:38:00.234Z,98449.00
2018-09-04T02:40:28.634Z,98458.00
2018-09-04T02:42:57.023Z,98455.00
2018-09-04T02:45:25.445Z,98457.00
2018-09-04T02:47:53.864Z,98458.00
2018-09-04T02:50:22.272Z,98460.00
2018-09-04T02:52:50.678Z,98453.00
2018-09-04T02:55:19.168Z,98451.00
2018-09-04T02:57:47.581Z,98445.00
2018-09-04T03:00:16.010Z,98452.00
2018-09-04T03:02:44.410Z,98448.00
2018-09-04T03:05:12.853Z,98444.00
2018-09-04T03:07:41.307Z,98457.00
2018-09-04T03:10:09.780Z,98448.00
2018-09-04T03:12:38.224Z,98450.00
2018-09-04T03:15:06.789Z,98448.00
2018-09-04T03:17:35.230Z,98454.00
2018-09-04T03:20:03.702Z,98460.00
2018-09-04T03:22:32.205Z,98459.00
2018-09-04T03:25:00.643Z,98460.00
2018-09-04T03:27:29.154Z,98463.00
2018-09-04T03:29:57.595Z,98463.00
2018-09-04T03:32:26.052Z,98473.00
2018-09-04T03:34:54.574Z,98465.00
2018-09-04T03:37:23.002Z,98458.00
2018-09-04T03:39:51.615Z,98464.00
2018-09-04T03:42:20.193Z,98462.00
2018-09-04T03:44:48.640Z,98457.00
2018-09-04T03:47:17.081Z,98454.00
2018-09-04T03:49:45.709Z,98457.00
2018-09-04T03:52:14.159Z,98453.00
2018-09-04T03:54:42.777Z,98447.00
2018-09-04T03:57:11.203Z,98450.00
2018-09-04T03:59:39.638Z,98458.00
2018-09-04T04:02:08.049Z,98466.00
2018-09-04T04:04:36.478Z,98455.00
2018-09-04T04:07:04.892Z,98463.00
2018-09-04T04:09:33.448Z,98461.00
2018-09-04T04:12:01.898Z,98451.00
2018-09-04T04:14:30.315Z,98455.00
2018-09-04T04:16:58.893Z,98456.00
2018-09-04T04:19:27.347Z,98454.00
2018-09-04T04:21:55.797Z,98457.00
2018-09-04T04:24:24.227Z,98455.00
2018-09-04T04:26:52.688Z,98452.00
2018-09-04T04:29:21.581Z,98450.00
2018-09-04T04:31:50.021Z,98458.00
2018-09-04T04:34:18.454Z,98450.00
2018-09-04T04:36:46.905Z,98452.00
2018-09-04T04:39:15.315Z,98449.00
2018-09-04T04:41:43.753Z,98452.00
2018-09-04T04:44:12.209Z,98467.00
2018-09-04T04:46:40.756Z,98464.00
2018-09-04T04:49:09.830Z,98449.00
2018-09-04T04:51:38.274Z,98456.00
2018-09-04T04:54:06.705Z,98453.00
2018-09-04T04:56:35.332Z,98454.00
2018-09-04T04:59:03.800Z,98449.00
2018-09-04T05:01:32.380Z,98446.00
2018-09-04T05:04:01.217Z,98446.00
2018-09-04T05:06:29.955Z,98440.00
2018-09-04T05:08:58.404Z,98447.00
2018-09-04T05:11:26.966Z,98442.00
2018-09-04T05:13:55.403Z,98452.00
2018-09-04T05:16:23.840Z,98460.00
2018-09-04T05:18:52.463Z,98463.00
2018-09-04T05:21:20.967Z,98466.00
2018-09-04T05:23:49.420Z,98463.00
2018-09-04T05:26:17.865Z,98471.00
2018-09-04T05:28:46.297Z,98481.00
2018-09-04T05:31:14.718Z,98486.00
2018-09-04T05:33:44.524Z,98478.00
2018-09-04T05:36:13.105Z,98481.00
2018-09-04T05:38:41.541Z,98477.00
2018-09-04T05:41:10.237Z,98477.00
2018-09-04T05:44:10.666Z,98474.00
2018-09-04T05:46:41.750Z,98488.00
2018-09-04T05:49:10.652Z,98493.00
2018-09-04T05:51:39.293Z,98485.00
2018-09-04T05:54:07.787Z,98491.00
2018-09-04T05:56:36.272Z,98486.00
2018-09-04T05:59:04.726Z,98496.00
2018-09-04T06:01:33.205Z,98494.00
2018-09-04T06:04:01.658Z,98492.00
2018-09-04T06:06:30.273Z,98493.00
2018-09-04T06:08:58.723Z,98498.00
2018-09-04T06:11:27.348Z,98486.00
2018-09-04T06:13:55.822Z,98486.00
2018-09-04T06:16:24.437Z,98484.00
2018-09-04T06:18:52.931Z,98476.00
2018-09-04T06:21:23.293Z,98477.00
2018-09-04T06:23:52.421Z,98488.00
2018-09-04T06:26:20.859Z,98479.00
2018-09-04T06:28:49.299Z,98479.00
2018-09-04T06:31:17.754Z,98483.00
2018-09-04T06:33:46.218Z,98477.00
2018-09-04T06:36:14.941Z,98479.00
2018-09-04T06:38:43.394Z,98479.00
2018-09-04T06:41:12.043Z,98480.00
2018-09-04T06:43:40.484Z,98485.00
2018-09-04T06:46:09.123Z,98484.00
2018-09-04T06:48:38.491Z,98485.00
2018-09-04T06:51:08.041Z,98495.00
2018-09-04T06:53:36.685Z,98495.00
2018-09-04T06:56:05.573Z,98487.00
2018-09-04T06:58:34.009Z,98492.00
2018-09-04T07:01:02.706Z,98499.00
2018-09-04T07:03:31.285Z,98484.00
2018-09-04T07:05:59.751Z,98494.00
2018-09-04T07:08:28.211Z,98501.00
2018-09-04T07:10:56.659Z,98492.00
2018-09-04T07:13:25.261Z,98499.00
2018-09-04T07:15:54.506Z,98497.00
2018-09-04T07:18:23.440Z,98491.00
2018-09-04T07:20:52.012Z,98502.00
2018-09-04T07:23:20.829Z,98502.00
2018-09-04T07:25:49.620Z,98501.00
2018-09-04T07:28:18.571Z,98511.00
2018-09-04T07:30:47.221Z,98508.00
2018-09-04T07:33:15.748Z,98517.00
2018-09-04T07:35:44.186Z,98514.00
2018-09-04T07:38:12.648Z,98524.00
2018-09-04T07:40:41.117Z,98520.00
2018-09-04T07:43:09.566Z,98518.00
2018-09-04T07:45:38.022Z,98527.00
2018-09-04T07:48:06.516Z,98514.00
2018-09-04T07:50:34.954Z,98509.00
2018-09-04T07:53:04.753Z,98503.00
2018-09-04T07:55:33.372Z,98519.00
2018-09-04T07:58:01.823Z,98504.00
2018-09-04T08:00:30.508Z,98512.00
2018-09-04T08:02:58.965Z,98511.00
2018-09-04T08:05:27.438Z,98515.00
2018-09-04T08:07:55.914Z,98521.00
2018-09-04T08:10:24.350Z,98522.00
2018-09-04T08:12:52.831Z,98518.00
2018-09-04T08:15:21.322Z,98523.00
2018-09-04T08:17:49.781Z,98519.00
2018-09-04T08:20:18.288Z,98527.00
2018-09-04T08:22:46.702Z,98523.00
2018-09-04T08:25:15.147Z,98516.00
2018-09-04T08:27:43.771Z,98513.00
2018-09-04T08:30:12.257Z,98510.00
2018-09-04T08:32:40.715Z,98514.00
2018-09-04T08:35:09.278Z,98515.00
2018-09-04T08:37:37.725Z,98515.00
2018-09-04T08:40:06.174Z,98516.00
2018-09-04T08:42:34.622Z,98514.00
2018-09-04T08:45:03.066Z,98514.00
2018-09-04T08:47:31.806Z,98504.00
2018-09-04T08:50:00.244Z,98513.00
2018-09-04T08:52:28.787Z,98509.00
2018-09-04T08:54:57.578Z,98512.00
2018-09-04T08:57:26.021Z,98515.00
2018-09-04T08:59:55.206Z,98503.00
2018-09-04T09:02:25.521Z,98502.00
2018-09-04T09:04:55.111Z,98499.00
2018-09-04T09:07:23.584Z,98498.00
2018-09-04T09:09:52.323Z,98496.00
2018-09-04T09:12:23.355Z,98492.00
2018-09-04T09:14:51.763Z,98486.00
2018-09-04T09:17:20.167Z,98500.00
2018-09-04T09:19:48.632Z,98492.00
2018-09-04T09:22:17.438Z,98491.00
2018-09-04T09:24:45.863Z,98498.00
2018-09-04T09:27:15.418Z,98501.00
2018-09-04T09:29:43.920Z,98499.00
2018-09-04T09:32:12.319Z,98496.00
2018-09-04T09:34:40.761Z,98497.00
2018-09-04T09:37:09.189Z,98499.00
2018-09-04T09:39:37.652Z,98497.00
2018-09-04T09:42:06.101Z,98489.00
2018-09-04T09:44:48.523Z,98485.00
2018-09-04T09:47:18.083Z,98473.00
2018-09-04T09:49:46.677Z,98482.00
2018-09-04T09:52:15.325Z,98477.00
2018-09-04T09:54:44.042Z,98485.00
2018-09-04T09:57:12.679Z,98483.00
2018-09-04T09:59:41.642Z,98487.00
2018-09-04T10:02:15.423Z,98488.00
2018-09-04T10:04:43.813Z,98479.00
2018-09-04T10:07:12.342Z,98482.00
2018-09-04T10:09:40.751Z,98479.00
2018-09-04T10:12:09.193Z,98479.00
2018-09-04T10:14:37.610Z,98478.00
2018-09-04T10:17:06.435Z,98480.00
2018-09-04T10:19:34.868Z,98492.00
2018-09-04T10:22:03.267Z,98484.00
2018-09-04T10:24:31.849Z,98476.00
2018-09-04T10:27:00.274Z,98483.00
2018-09-04T10:29:28.781Z,98481.00
2018-09-04T10:31:57.262Z,98477.00
2018-09-04T10:34:25.659Z,98476.00
2018-09-04T10:36:54.103Z,98467.00
2018-09-04T10:39:27.777Z,98463.00
2018-09-04T10:41:56.204Z,98461.00
2018-09-04T10:44:24.832Z,98466.00
2018-09-04T10:46:53.182Z,98465.00
2018-09-04T10:49:21.613Z,98462.00
2018-09-04T10:51:50.009Z,98450.00
2018-09-04T10:54:18.482Z,98457.00
2018-09-04T10:56:46.906Z,98455.00
2018-09-04T10:59:15.372Z,98457.00
2018-09-04T11:01:43.765Z,98455.00
2018-09-04T11:04:12.194Z,98455.00
2018-09-04T11:06:40.582Z,98459.00
2018-09-04T11:09:10.567Z,98461.00
2018-09-04T11:11:39.893Z,98448.00
2018-09-04T11:14:08.407Z,98450.00
2018-09-04T11:16:36.818Z,98457.00
2018-09-04T11:19:05.219Z,98456.00
2018-09-04T11:21:33.631Z,98453.00
2018-09-04T11:24:02.064Z,98449.00
2018-09-04T11:26:30.888Z,98440.00
2018-09-04T11:29:02.091Z,98436.00
2018-09-04T11:31:30.538Z,98436.00
2018-09-04T11:33:59.248Z,98436.00
2018-09-04T11:36:27.648Z,98435.00
2018-09-04T11:38:56.101Z,98437.00
2018-09-04T11:41:24.721Z,98437.00
2018-09-04T11:43:53.216Z,98440.00
2018-09-04T11:46:21.777Z,98430.00
2018-09-04T11:48:50.256Z,98432.00
2018-09-04T11:51:18.704Z,98436.00
2018-09-04T11:53:47.325Z,98444.00
2018-09-04T11:56:19.387Z,98446.00
2018-09-04T11:58:48.056Z,98448.00
2018-09-04T12:01:18.171Z,98444.00
2018-09-04T12:03:46.729Z,98445.00
2018-09-04T12:06:15.225Z,98455.00
2018-09-04T12:08:43.714Z,98445.00
2018-09-04T12:11:12.121Z,98450.00
2018-09-04T12:13:40.685Z,98450.00
2018-09-04T12:16:09.095Z,98451.00
2018-09-04T12:18:37.520Z,98447.00
2018-09-04T12:21:08.500Z,98446.00
2018-09-04T12:23:37.283Z,98450.00
2018-09-04T12:26:07.194Z,98441.00
2018-09-04T12:28:35.702Z,98445.00
2018-09-04T12:31:04.374Z,98442.00
2018-09-04T12:33:32.806Z,98444.00
2018-09-04T12:36:01.317Z,98440.00
2018-09-04T12:38:31.497Z,98436.00
2018-09-04T12:41:04.206Z,98439.00
2018-09-04T12:43:32.686Z,98433.00
2018-09-04T12:46:01.115Z,98438.00
2018-09-04T12:48:30.513Z,98427.00
2018-09-04T12:51:01.138Z,98426.00
2018-09-04T12:53:30.594Z,98431.00
2018-09-04T12:55:59.045Z,98426.00
2018-09-04T12:58:27.451Z,98431.00
2018-09-04T13:00:56.886Z,98425.00
2018-09-04T13:03:26.398Z,98423.00
2018-09-04T13:05:55.815Z,98421.00
2018-09-04T13:08:25.842Z,98427.00
2018-09-04T13:10:54.284Z,98418.00
2018-09-04T13:13:22.789Z,98424.00
2018-09-04T13:15:53.255Z,98421.00
2018-09-04T13:18:23.051Z,98421.00
2018-09-04T13:20:51.617Z,98420.00
2018-09-04T13:23:20.090Z,98416.00
2018-09-04T13:25:48.868Z,98416.00
2018-09-04T13:28:17.420Z,98420.00
2018-09-04T13:30:46.126Z,98412.00
2018-09-04T13:33:14.608Z,98406.00
2018-09-04T13:35:43.020Z,98413.00
2018-09-04T13:38:11.562Z,98412.00
2018-09-04T13:40:40.198Z,98415.00
2018-09-04T13:43:08.782Z,98407.00
2018-09-04T13:45:38.337Z,98407.00
2018-09-04T13:48:07.041Z,98400.00
2018-09-04T13:50:36.293Z,98406.00
2018-09-04T13:53:05.080Z,98404.00
2018-09-04T13:55:33.475Z,98402.00
2018-09-04T13:58:02.151Z,98408.00
2018-09-04T14:00:30.584Z,98406.00
2018-09-04T14:02:58.997Z,98406.00
2018-09-04T14:05:27.433Z,98393.00
2018-09-04T14:07:55.857Z,98407.00
2018-09-04T14:10:24.272Z,98406.00
2018-09-04T14:12:53.227Z,98415.00
2018-09-04T14:15:21.657Z,98413.00
2018-09-04T14:17:50.086Z,98417.00
2018-09-04T14:20:18.550Z,98424.00
2018-09-04T14:22:46.958Z,98423.00
2018-09-04T14:25:15.496Z,98431.00
2018-09-04T14:27:43.939Z,98435.00
2018-09-04T14:30:16.043Z,98449.00
2018-09-04T14:32:40.798Z,98456.00
2018-09-04T14:35:09.563Z,98456.00
2018-09-04T14:37:37.971Z,98460.00
2018-09-04T14:40:06.463Z,98470.00
2018-09-04T14:42:34.868Z,98456.00
2018-09-04T14:45:03.397Z,98450.00
2018-09-04T14:47:31.837Z,98441.00
2018-09-04T14:50:00.249Z,98440.00
2018-09-04T14:52:28.724Z,98443.00
2018-09-04T14:54:57.124Z,98443.00
2018-09-04T14:57:25.721Z,98447.00
2018-09-04T14:59:54.197Z,98448.00
2018-09-04T15:02:22.642Z,98455.00
2018-09-04T15:04:51.302Z,98459.00
2018-09-04T15:07:19.817Z,98465.00
2018-09-04T15:09:48.249Z,98463.00
2018-09-04T15:12:16.826Z,98455.00
2018-09-04T15:14:45.285Z,98454.00
2018-09-04T15:17:13.930Z,98459.00
2018-09-04T15:19:42.335Z,98457.00
2018-09-04T15:22:10.981Z,98458.00
2018-09-04T15:24:39.650Z,98449.00
2018-09-04T15:27:08.092Z,98452.00
2018-09-04T15:29:36.616Z,98452.00
2018-09-04T15:32:05.342Z,98453.00
2018-09-04T15:34:33.865Z,98457.00
2018-09-04T15:37:02.390Z,98449.00
2018-09-04T15:39:30.760Z,98458.00
2018-09-04T15:41:59.166Z,98467.00
2018-09-04T15:44:27.843Z,98465.00
2018-09-04T15:46:56.253Z,98463.00
2018-09-04T15:49:30.112Z,98461.00
2018-09-04T15:51:58.510Z,98466.00
2018-09-04T15:54:26.958Z,98453.00
2018-09-04T15:56:55.405Z,98457.00
2018-09-04T15:59:23.950Z,98460.00
2018-09-04T16:01:52.451Z,98463.00
2018-09-04T16:04:21.014Z,98459.00
2018-09-04T16:06:49.445Z,98465.00
2018-09-04T16:09:18.474Z,98470.00
2018-09-04T16:11:47.427Z,98474.00
2018-09-04T16:14:15.921Z,98478.00
2018-09-04T16:16:44.346Z,98480.00
2018-09-04T16:19:12.770Z,98481.00
2018-09-04T16:21:41.403Z,98490.00
2018-09-04T16:24:09.950Z,98488.00
2018-09-04T16:26:38.383Z,98490.00
2018-09-04T16:29:06.844Z,98481.00
2018-09-04T16:31:35.403Z,98484.00
2018-09-04T16:34:04.540Z,98489.00
2018-09-04T16:36:33.093Z,98491.00
2018-09-04T16:39:01.780Z,98485.00
2018-09-04T16:41:30.345Z,98490.00
2018-09-04T16:43:58.750Z,98492.00
2018-09-04T16:46:27.621Z,98496.00
2018-09-04T16:48:56.174Z,98488.00
2018-09-04T16:51:24.596Z,98488.00
2018-09-04T16:53:53.055Z,98489.00
2018-09-04T16:56:21.893Z,98492.00
2018-09-04T16:58:50.527Z,98490.00
2018-09-04T17:01:19.119Z,98488.00
2018-09-04T17:03:47.577Z,98497.00
2018-09-04T17:06:15.989Z,98498.00
2018-09-04T17:08:45.896Z,98497.00
2018-09-04T17:16:15.618Z,98502.00
2018-09-04T17:30:47.323Z,98497.00
2018-09-04T17:34:37.952Z,98506.00
2018-09-04T17:37:37.963Z,98504.00
2018-09-04T17:44:32.039Z,98510.00
2018-09-04T17:47:38.741Z,98513.00
2018-09-04T17:53:52.645Z,98521.00
2018-09-04T17:56:49.596Z,98524.00
2018-09-04T18:03:01.620Z,98528.00
2018-09-04T18:09:16.639Z,98527.00
2018-09-04T18:13:03.274Z,98531.00
2018-09-04T18:16:33.329Z,98543.00
2018-09-04T18:31:01.944Z,98553.00
2018-09-04T18:34:16.623Z,98565.00
2018-09-04T18:40:55.510Z,98563.00
2018-09-04T18:57:25.915Z,98601.00
2018-09-04T19:00:38.306Z,98604.00
2018-09-04T19:09:17.256Z,98601.00
2018-09-04T19:11:45.933Z,98601.00
2018-09-04T19:14:14.419Z,98606.00
2018-09-04T19:16:42.912Z,98601.00
2018-09-04T19:19:11.321Z,98607.00
2018-09-04T19:21:39.774Z,98613.00
2018-09-04T19:24:08.328Z,98604.00
2018-09-04T19:26:36.897Z,98609.00
2018-09-04T19:29:05.439Z,98603.00
2018-09-04T19:31:33.852Z,98603.00
2018-09-04T19:34:02.330Z,98598.00
2018-09-04T19:36:30.751Z,98607.00
2018-09-04T19:38:59.168Z,98604.00
2018-09-04T19:41:27.596Z,98605.00
2018-09-04T19:43:55.993Z,98599.00
2018-09-04T19:46:24.398Z,98603.00
2018-09-04T19:48:52.817Z,98609.00
2018-09-04T19:51:21.224Z,98608.00
2018-09-04T19:53:49.797Z,98613.00
2018-09-04T19:56:18.541Z,98610.00
2018-09-04T19:58:47.122Z,98616.00
2018-09-04T20:01:15.753Z,98624.00
2018-09-04T20:03:44.456Z,98618.00
2018-09-04T20:06:13.242Z,98609.00
2018-09-04T20:08:41.867Z,98615.00
2018-09-04T20:11:10.282Z,98616.00
2018-09-04T20:13:38.709Z,98612.00
2018-09-04T20:16:07.283Z,98617.00
2018-09-04T20:18:35.801Z,98616.00
2018-09-04T20:21:04.193Z,98614.00
2018-09-04T20:23:33.090Z,98614.00
2018-09-04T20:26:01.558Z,98622.00
2018-09-04T20:28:29.957Z,98618.00
2018-09-04T20:30:58.357Z,98625.00
2018-09-04T20:33:26.774Z,98621.00
2018-09-04T20:35:55.218Z,98631.00
2018-09-04T20:38:23.625Z,98624.00
2018-09-04T20:40:52.084Z,98637.00
2018-09-04T20:43:20.481Z,98617.00
2018-09-04T20:45:48.878Z,98624.00
2018-09-04T20:48:17.302Z,98621.00
2018-09-04T20:50:45.705Z,98620.00
2018-09-04T20:53:14.103Z,98627.00
2018-09-04T20:55:47.854Z,98633.00
2018-09-04T20:58:27.507Z,98629.00
2018-09-04T21:01:07.070Z,98639.00
2018-09-04T21:03:46.769Z,98638.00
2018-09-04T21:06:26.372Z,98641.00
2018-09-04T21:09:02.516Z,98640.00
2018-09-04T21:11:31.449Z,98640.00
2018-09-04T21:13:59.847Z,98632.00
2018-09-04T21:16:28.251Z,98644.00
2018-09-04T21:18:56.651Z,98630.00
2018-09-04T21:21:25.042Z,98632.00
2018-09-04T21:23:53.453Z,98637.00
2018-09-04T21:26:21.841Z,98647.00
2018-09-04T21:28:50.261Z,98637.00
2018-09-04T21:31:18.662Z,98635.00
2018-09-04T21:33:47.177Z,98632.00
2018-09-04T21:36:15.573Z,98641.00
2018-09-04T21:38:43.990Z,98639.00
2018-09-04T21:41:12.387Z,98636.00
2018-09-04T21:43:40.789Z,98637.00
2018-09-04T21:46:09.294Z,98633.00
2018-09-04T21:48:37.863Z,98638.00
2018-09-04T21:51:06.486Z,98641.00
2018-09-04T21:53:34.912Z,98643.00
2018-09-04T21:56:03.320Z,98635.00
2018-09-04T21:58:31.705Z,98637.00
2018-09-04T22:01:00.115Z,98637.00
2018-09-04T22:03:28.510Z,98643.00
2018-09-04T22:05:56.963Z,98640.00
2018-09-04T22:08:25.376Z,98637.00
2018-09-04T22:10:53.798Z,98641.00
2018-09-04T22:13:22.215Z,98647.00
2018-09-04T22:15:51.006Z,98641.00
2018-09-04T22:18:19.405Z,98645.00
2018-09-04T22:20:47.802Z,98644.00
2018-09-04T22:23:16.205Z,98642.00
2018-09-04T22:25:44.586Z,98643.00
2018-09-04T22:28:13.017Z,98656.00
2018-09-04T22:30:41.427Z,98648.00
2018-09-04T22:33:09.822Z,98643.00
2018-09-04T22:35:38.210Z,98648.00
2018-09-04T22:38:06.625Z,98649.00
2018-09-04T22:40:35.018Z,98648.00
2018-09-04T22:43:03.409Z,98631.00
2018-09-04T22:45:31.813Z,98645.00
2018-09-04T22:48:00.361Z,98636.00
2018-09-04T22:50:33.973Z,98639.00
2018-09-04T22:53:02.371Z,98635.00
2018-09-04T22:55:30.782Z,98647.00
2018-09-04T22:57:59.185Z,98637.00
2018-09-04T23:00:27.575Z,98654.00
2018-09-04T23:02:55.966Z,98653.00
2018-09-04T23:05:24.493Z,98649.00
2018-09-04T23:07:52.886Z,98648.00
2018-09-04T23:10:21.378Z,98654.00
2018-09-04T23:12:49.769Z,98645.00
2018-09-04T23:15:18.179Z,98651.00
2018-09-04T23:17:46.584Z,98644.00
2018-09-04T23:20:14.974Z,98647.00
2018-09-04T23:22:43.371Z,98650.00
2018-09-04T23:25:11.754Z,98650.00
2018-09-04T23:27:40.166Z,98654.00
2018-09-04T23:30:08.562Z,98650.00
2018-09-04T23:32:36.990Z,98656.00
2018-09-04T23:35:05.385Z,98654.00
2018-09-04T23:37:33.872Z,98660.00
2018-09-04T23:40:02.276Z,98655.00
2018-09-04T23:42:32.249Z,98654.00
2018-09-04T23:45:01.561Z,98658.00
2018-09-04T23:47:29.997Z,98655.00
2018-09-04T23:49:58.448Z,98654.00
2018-09-04T23:52:26.873Z,98658.00
2018-09-04T23:54:55.305Z,98654.00
2018-09-04T23:57:23.721Z,98654.00
2018-09-04T23:59:52.141Z,98657.00
